sensor_id;sensor_type;location;lat;lon;timestamp;pressure;altitude;pressure_sealevel;temperature;humidity
37291;BME280;23175;-33.706;151.094;2023-08-08T00:01:39;101473.22;;;12.68;48.21
37291;BME280;23175;-33.706;151.094;2023-08-08T00:04:09;101469.87;;;14.87;45.57
37291;BME280;23175;-33.706;151.094;2023-08-08T00:06:40;101466.60;;;11.69;50.05
37291;BME280;23175;-33.706;151.094;2023-08-08T00:09:10;101463.31;;;15.24;45.17
37291;BME280;23175;-33.706;151.094;2023-08-08T00:11:39;101460.69;;;14.53;45.79
37291;BME280;23175;-33.706;151.094;2023-08-08T00:14:09;101458.70;;;15.79;44.42
37291;BME280;23175;-33.706;151.094;2023-08-08T00:16:44;101457.49;;;13.33;47.35
37291;BME280;23175;-33.706;151.094;2023-08-08T00:19:14;101457.52;;;13.59;46.71
37291;BME280;23175;-33.706;151.094;2023-08-08T00:21:44;101456.60;;;13.21;47.21
37291;BME280;23175;-33.706;151.094;2023-08-08T00:24:15;101454.29;;;14.61;44.58
37291;BME280;23175;-33.706;151.094;2023-08-08T00:26:45;101454.51;;;14.51;46.72
37291;BME280;23175;-33.706;151.094;2023-08-08T00:29:15;101453.30;;;14.50;44.69
37291;BME280;23175;-33.706;151.094;2023-08-08T00:31:45;101454.32;;;12.78;47.85
37291;BME280;23175;-33.706;151.094;2023-08-08T00:34:15;101451.10;;;14.74;44.17
37291;BME280;23175;-33.706;151.094;2023-08-08T00:36:46;101456.91;;;10.86;51.17
37291;BME280;23175;-33.706;151.094;2023-08-08T00:39:16;101454.78;;;15.04;45.12
37291;BME280;23175;-33.706;151.094;2023-08-08T00:41:46;101455.52;;;15.22;44.18
37291;BME280;23175;-33.706;151.094;2023-08-08T00:44:16;101451.72;;;13.91;48.01
37291;BME280;23175;-33.706;151.094;2023-08-08T00:46:46;101449.49;;;15.32;43.30
37291;BME280;23175;-33.706;151.094;2023-08-08T00:49:16;101448.26;;;13.10;47.35
37291;BME280;23175;-33.706;151.094;2023-08-08T00:51:47;101446.93;;;12.95;46.72
37291;BME280;23175;-33.706;151.094;2023-08-08T00:54:17;101448.24;;;13.94;45.24
37291;BME280;23175;-33.706;151.094;2023-08-08T00:56:48;101444.41;;;11.78;48.76
37291;BME280;23175;-33.706;151.094;2023-08-08T00:59:20;101439.65;;;13.63;46.25
37291;BME280;23175;-33.706;151.094;2023-08-08T01:01:51;101439.64;;;14.73;44.41
37291;BME280;23175;-33.706;151.094;2023-08-08T01:04:21;101441.33;;;13.72;45.07
37291;BME280;23175;-33.706;151.094;2023-08-08T01:07:01;101437.05;;;15.15;44.14
37291;BME280;23175;-33.706;151.094;2023-08-08T01:09:41;101432.35;;;14.15;45.90
37291;BME280;23175;-33.706;151.094;2023-08-08T01:12:15;101427.12;;;15.12;44.04
37291;BME280;23175;-33.706;151.094;2023-08-08T01:14:45;101428.45;;;12.31;48.67
37291;BME280;23175;-33.706;151.094;2023-08-08T01:17:16;101420.65;;;14.07;45.55
37291;BME280;23175;-33.706;151.094;2023-08-08T01:19:47;101410.72;;;13.22;45.69
37291;BME280;23175;-33.706;151.094;2023-08-08T01:22:24;101413.16;;;12.11;48.76
37291;BME280;23175;-33.706;151.094;2023-08-08T01:24:55;101407.57;;;11.89;47.73
37291;BME280;23175;-33.706;151.094;2023-08-08T01:27:26;101402.56;;;13.26;46.52
37291;BME280;23175;-33.706;151.094;2023-08-08T01:29:56;101399.59;;;12.48;46.87
37291;BME280;23175;-33.706;151.094;2023-08-08T01:32:26;101398.84;;;12.13;47.86
37291;BME280;23175;-33.706;151.094;2023-08-08T01:34:55;101392.57;;;12.48;47.53
37291;BME280;23175;-33.706;151.094;2023-08-08T01:37:30;101382.89;;;13.79;45.48
37291;BME280;23175;-33.706;151.094;2023-08-08T01:40:03;101382.54;;;12.05;47.81
37291;BME280;23175;-33.706;151.094;2023-08-08T01:42:35;101377.85;;;13.36;45.14
37291;BME280;23175;-33.706;151.094;2023-08-08T01:45:06;101373.88;;;14.09;44.02
37291;BME280;23175;-33.706;151.094;2023-08-08T01:47:36;101365.19;;;13.49;44.77
37291;BME280;23175;-33.706;151.094;2023-08-08T01:50:07;101365.08;;;14.04;42.88
37291;BME280;23175;-33.706;151.094;2023-08-08T01:52:38;101363.82;;;16.27;40.71
37291;BME280;23175;-33.706;151.094;2023-08-08T01:55:08;101356.25;;;14.89;41.82
37291;BME280;23175;-33.706;151.094;2023-08-08T01:57:39;101347.14;;;15.50;41.05
37291;BME280;23175;-33.706;151.094;2023-08-08T02:00:10;101342.61;;;15.03;41.45
37291;BME280;23175;-33.706;151.094;2023-08-08T02:02:45;101331.82;;;11.87;45.46
37291;BME280;23175;-33.706;151.094;2023-08-08T02:05:15;101329.22;;;13.88;43.33
37291;BME280;23175;-33.706;151.094;2023-08-08T02:07:45;101324.69;;;13.74;42.47
37291;BME280;23175;-33.706;151.094;2023-08-08T02:10:15;101318.11;;;12.85;44.95
37291;BME280;23175;-33.706;151.094;2023-08-08T02:12:45;101316.76;;;15.17;41.50
37291;BME280;23175;-33.706;151.094;2023-08-08T02:15:16;101314.00;;;13.21;44.25
37291;BME280;23175;-33.706;151.094;2023-08-08T02:17:50;101310.34;;;14.78;41.20
37291;BME280;23175;-33.706;151.094;2023-08-08T02:20:19;101305.74;;;14.65;40.19
37291;BME280;23175;-33.706;151.094;2023-08-08T02:22:50;101301.73;;;15.26;39.87
37291;BME280;23175;-33.706;151.094;2023-08-08T02:25:20;101297.08;;;14.14;40.76
37291;BME280;23175;-33.706;151.094;2023-08-08T02:27:50;101286.33;;;14.98;39.11
37291;BME280;23175;-33.706;151.094;2023-08-08T02:30:19;101285.86;;;14.02;40.55
37291;BME280;23175;-33.706;151.094;2023-08-08T02:32:49;101281.91;;;12.67;41.89
37291;BME280;23175;-33.706;151.094;2023-08-08T02:35:20;101277.71;;;14.52;38.67
37291;BME280;23175;-33.706;151.094;2023-08-08T02:37:50;101273.27;;;14.91;38.30
37291;BME280;23175;-33.706;151.094;2023-08-08T02:40:20;101269.79;;;14.15;38.88
37291;BME280;23175;-33.706;151.094;2023-08-08T02:42:51;101269.35;;;15.08;38.68
37291;BME280;23175;-33.706;151.094;2023-08-08T02:45:21;101262.57;;;13.67;38.45
37291;BME280;23175;-33.706;151.094;2023-08-08T02:47:51;101260.84;;;13.98;38.76
37291;BME280;23175;-33.706;151.094;2023-08-08T02:50:21;101255.80;;;14.70;37.89
37291;BME280;23175;-33.706;151.094;2023-08-08T02:52:51;101253.63;;;14.55;39.72
37291;BME280;23175;-33.706;151.094;2023-08-08T02:55:21;101247.67;;;13.58;38.92
37291;BME280;23175;-33.706;151.094;2023-08-08T02:57:51;101246.73;;;14.96;37.37
37291;BME280;23175;-33.706;151.094;2023-08-08T03:00:20;101243.28;;;14.95;36.94
37291;BME280;23175;-33.706;151.094;2023-08-08T03:02:50;101240.91;;;12.83;38.78
37291;BME280;23175;-33.706;151.094;2023-08-08T03:05:21;101239.18;;;14.47;34.38
37291;BME280;23175;-33.706;151.094;2023-08-08T03:07:50;101238.60;;;12.42;37.07
37291;BME280;23175;-33.706;151.094;2023-08-08T03:10:20;101232.53;;;15.36;35.48
37291;BME280;23175;-33.706;151.094;2023-08-08T03:12:50;101234.65;;;14.14;35.95
37291;BME280;23175;-33.706;151.094;2023-08-08T03:15:20;101234.27;;;14.28;34.50
37291;BME280;23175;-33.706;151.094;2023-08-08T03:17:50;101235.67;;;12.86;36.76
37291;BME280;23175;-33.706;151.094;2023-08-08T03:20:19;101232.12;;;14.83;35.48
37291;BME280;23175;-33.706;151.094;2023-08-08T03:22:49;101223.62;;;15.48;34.53
37291;BME280;23175;-33.706;151.094;2023-08-08T03:25:19;101220.31;;;15.67;34.23
37291;BME280;23175;-33.706;151.094;2023-08-08T03:27:49;101223.25;;;13.17;37.72
37291;BME280;23175;-33.706;151.094;2023-08-08T03:30:18;101221.99;;;13.70;37.72
37291;BME280;23175;-33.706;151.094;2023-08-08T03:32:48;101221.48;;;14.41;37.34
37291;BME280;23175;-33.706;151.094;2023-08-08T03:35:18;101214.43;;;12.92;39.50
37291;BME280;23175;-33.706;151.094;2023-08-08T03:37:48;101208.79;;;15.20;36.10
37291;BME280;23175;-33.706;151.094;2023-08-08T03:40:18;101212.64;;;11.98;39.37
37291;BME280;23175;-33.706;151.094;2023-08-08T03:42:48;101210.15;;;12.65;39.44
37291;BME280;23175;-33.706;151.094;2023-08-08T03:45:18;101207.02;;;14.82;36.83
37291;BME280;23175;-33.706;151.094;2023-08-08T03:47:48;101204.86;;;14.00;37.82
37291;BME280;23175;-33.706;151.094;2023-08-08T03:50:18;101200.57;;;12.13;40.71
37291;BME280;23175;-33.706;151.094;2023-08-08T03:52:48;101201.01;;;11.97;40.45
37291;BME280;23175;-33.706;151.094;2023-08-08T03:55:18;101198.30;;;12.93;40.45
37291;BME280;23175;-33.706;151.094;2023-08-08T03:57:48;101190.60;;;13.32;38.70
37291;BME280;23175;-33.706;151.094;2023-08-08T04:00:18;101192.66;;;12.73;40.43
37291;BME280;23175;-33.706;151.094;2023-08-08T04:02:48;101191.24;;;13.69;40.13
37291;BME280;23175;-33.706;151.094;2023-08-08T04:05:18;101188.69;;;14.90;40.30
37291;BME280;23175;-33.706;151.094;2023-08-08T04:07:48;101187.71;;;14.02;40.51
37291;BME280;23175;-33.706;151.094;2023-08-08T04:10:18;101182.44;;;15.32;39.61
37291;BME280;23175;-33.706;151.094;2023-08-08T04:12:48;101186.08;;;12.13;44.71
37291;BME280;23175;-33.706;151.094;2023-08-08T04:15:22;101184.06;;;14.18;41.32
37291;BME280;23175;-33.706;151.094;2023-08-08T04:17:52;101181.38;;;14.40;41.72
37291;BME280;23175;-33.706;151.094;2023-08-08T04:20:22;101183.76;;;12.51;42.88
37291;BME280;23175;-33.706;151.094;2023-08-08T04:22:53;101180.68;;;15.37;39.85
37291;BME280;23175;-33.706;151.094;2023-08-08T04:25:23;101181.88;;;15.11;40.94
37291;BME280;23175;-33.706;151.094;2023-08-08T04:27:53;101180.94;;;13.37;42.28
37291;BME280;23175;-33.706;151.094;2023-08-08T04:30:22;101180.54;;;14.13;40.57
37291;BME280;23175;-33.706;151.094;2023-08-08T04:32:52;101181.03;;;14.17;40.97
37291;BME280;23175;-33.706;151.094;2023-08-08T04:35:22;101179.12;;;14.03;40.54
37291;BME280;23175;-33.706;151.094;2023-08-08T04:37:52;101178.79;;;15.27;39.96
37291;BME280;23175;-33.706;151.094;2023-08-08T04:40:22;101181.81;;;14.58;40.05
37291;BME280;23175;-33.706;151.094;2023-08-08T04:42:52;101182.49;;;15.16;39.49
37291;BME280;23175;-33.706;151.094;2023-08-08T04:45:22;101187.39;;;14.08;39.83
37291;BME280;23175;-33.706;151.094;2023-08-08T04:47:51;101188.09;;;11.75;43.53
37291;BME280;23175;-33.706;151.094;2023-08-08T04:50:21;101186.09;;;12.07;42.28
37291;BME280;23175;-33.706;151.094;2023-08-08T04:52:51;101184.10;;;14.68;39.47
37291;BME280;23175;-33.706;151.094;2023-08-08T04:55:21;101186.50;;;12.66;40.44
37291;BME280;23175;-33.706;151.094;2023-08-08T04:57:51;101189.79;;;13.23;40.96
37291;BME280;23175;-33.706;151.094;2023-08-08T05:00:20;101191.22;;;12.11;42.82
37291;BME280;23175;-33.706;151.094;2023-08-08T05:02:50;101188.17;;;14.58;40.27
37291;BME280;23175;-33.706;151.094;2023-08-08T05:05:20;101195.26;;;11.52;45.00
37291;BME280;23175;-33.706;151.094;2023-08-08T05:07:50;101192.48;;;11.83;45.20
37291;BME280;23175;-33.706;151.094;2023-08-08T05:10:19;101193.42;;;14.11;41.20
37291;BME280;23175;-33.706;151.094;2023-08-08T05:12:49;101193.59;;;13.46;42.31
37291;BME280;23175;-33.706;151.094;2023-08-08T05:15:18;101192.78;;;11.21;46.86
37291;BME280;23175;-33.706;151.094;2023-08-08T05:17:48;101191.50;;;10.88;47.08
37291;BME280;23175;-33.706;151.094;2023-08-08T05:20:23;101189.19;;;11.97;45.54
37291;BME280;23175;-33.706;151.094;2023-08-08T05:22:53;101186.97;;;13.89;41.80
37291;BME280;23175;-33.706;151.094;2023-08-08T05:25:23;101191.60;;;12.98;43.62
37291;BME280;23175;-33.706;151.094;2023-08-08T05:27:53;101192.74;;;13.05;43.00
37291;BME280;23175;-33.706;151.094;2023-08-08T05:30:23;101195.98;;;12.33;43.63
37291;BME280;23175;-33.706;151.094;2023-08-08T05:32:54;101189.99;;;14.10;40.18
37291;BME280;23175;-33.706;151.094;2023-08-08T05:35:24;101183.03;;;14.85;39.14
37291;BME280;23175;-33.706;151.094;2023-08-08T05:37:54;101183.86;;;14.40;39.80
37291;BME280;23175;-33.706;151.094;2023-08-08T05:40:23;101182.77;;;12.57;43.40
37291;BME280;23175;-33.706;151.094;2023-08-08T05:42:53;101185.05;;;14.57;41.04
37291;BME280;23175;-33.706;151.094;2023-08-08T05:45:23;101183.57;;;13.74;41.41
37291;BME280;23175;-33.706;151.094;2023-08-08T05:47:53;101184.77;;;13.41;42.39
37291;BME280;23175;-33.706;151.094;2023-08-08T05:50:22;101187.11;;;12.17;44.08
37291;BME280;23175;-33.706;151.094;2023-08-08T05:52:52;101186.15;;;13.95;43.77
37291;BME280;23175;-33.706;151.094;2023-08-08T05:55:22;101191.82;;;13.60;43.23
37291;BME280;23175;-33.706;151.094;2023-08-08T05:57:52;101191.77;;;13.39;44.56
37291;BME280;23175;-33.706;151.094;2023-08-08T06:00:21;101192.10;;;14.18;43.93
37291;BME280;23175;-33.706;151.094;2023-08-08T06:02:51;101197.15;;;14.39;43.25
37291;BME280;23175;-33.706;151.094;2023-08-08T06:05:23;101198.61;;;14.36;42.44
37291;BME280;23175;-33.706;151.094;2023-08-08T06:07:52;101203.64;;;13.95;43.53
37291;BME280;23175;-33.706;151.094;2023-08-08T06:10:22;101206.00;;;12.93;44.12
37291;BME280;23175;-33.706;151.094;2023-08-08T06:12:53;101205.91;;;14.67;42.37
37291;BME280;23175;-33.706;151.094;2023-08-08T06:15:22;101208.67;;;13.07;44.25
37291;BME280;23175;-33.706;151.094;2023-08-08T06:17:53;101210.27;;;13.72;43.89
37291;BME280;23175;-33.706;151.094;2023-08-08T06:20:23;101209.95;;;13.25;43.71
37291;BME280;23175;-33.706;151.094;2023-08-08T06:22:53;101209.74;;;12.68;44.86
37291;BME280;23175;-33.706;151.094;2023-08-08T06:25:23;101213.17;;;13.56;44.21
37291;BME280;23175;-33.706;151.094;2023-08-08T06:27:53;101208.68;;;15.54;41.15
37291;BME280;23175;-33.706;151.094;2023-08-08T06:30:22;101212.37;;;13.64;42.73
37291;BME280;23175;-33.706;151.094;2023-08-08T06:32:52;101211.22;;;14.72;41.53
37291;BME280;23175;-33.706;151.094;2023-08-08T06:35:22;101214.74;;;13.95;42.62
37291;BME280;23175;-33.706;151.094;2023-08-08T06:37:53;101219.35;;;13.98;43.37
37291;BME280;23175;-33.706;151.094;2023-08-08T06:40:23;101224.28;;;12.15;45.41
37291;BME280;23175;-33.706;151.094;2023-08-08T06:42:53;101224.35;;;14.02;43.72
37291;BME280;23175;-33.706;151.094;2023-08-08T06:45:23;101228.71;;;13.38;44.14
37291;BME280;23175;-33.706;151.094;2023-08-08T06:47:52;101231.18;;;13.70;43.81
37291;BME280;23175;-33.706;151.094;2023-08-08T06:50:22;101230.36;;;12.89;43.88
37291;BME280;23175;-33.706;151.094;2023-08-08T06:52:52;101230.80;;;13.61;43.81
37291;BME280;23175;-33.706;151.094;2023-08-08T06:55:22;101233.65;;;13.29;42.88
37291;BME280;23175;-33.706;151.094;2023-08-08T06:57:51;101237.55;;;15.41;41.36
37291;BME280;23175;-33.706;151.094;2023-08-08T07:00:21;101241.44;;;13.79;42.10
37291;BME280;23175;-33.706;151.094;2023-08-08T07:02:52;101242.52;;;15.54;41.16
37291;BME280;23175;-33.706;151.094;2023-08-08T07:05:22;101241.47;;;14.90;41.01
37291;BME280;23175;-33.706;151.094;2023-08-08T07:07:51;101237.84;;;15.90;40.80
37291;BME280;23175;-33.706;151.094;2023-08-08T07:10:22;101241.23;;;15.40;39.76
37291;BME280;23175;-33.706;151.094;2023-08-08T07:12:52;101242.03;;;15.43;40.71
37291;BME280;23175;-33.706;151.094;2023-08-08T07:15:22;101247.72;;;14.59;42.04
37291;BME280;23175;-33.706;151.094;2023-08-08T07:17:52;101248.09;;;14.81;42.12
37291;BME280;23175;-33.706;151.094;2023-08-08T07:20:21;101247.34;;;15.44;40.80
37291;BME280;23175;-33.706;151.094;2023-08-08T07:22:51;101248.57;;;16.52;39.86
37291;BME280;23175;-33.706;151.094;2023-08-08T07:25:21;101251.10;;;15.87;40.48
37291;BME280;23175;-33.706;151.094;2023-08-08T07:27:50;101252.43;;;15.07;42.64
37291;BME280;23175;-33.706;151.094;2023-08-08T07:30:20;101248.56;;;15.67;41.32
37291;BME280;23175;-33.706;151.094;2023-08-08T07:32:50;101253.98;;;13.98;43.81
37291;BME280;23175;-33.706;151.094;2023-08-08T07:35:27;101252.45;;;14.96;42.01
37291;BME280;23175;-33.706;151.094;2023-08-08T07:37:57;101251.88;;;16.29;41.74
37291;BME280;23175;-33.706;151.094;2023-08-08T07:40:26;101251.33;;;15.56;41.77
37291;BME280;23175;-33.706;151.094;2023-08-08T07:42:57;101254.26;;;16.10;41.33
37291;BME280;23175;-33.706;151.094;2023-08-08T07:45:28;101259.95;;;15.53;42.13
37291;BME280;23175;-33.706;151.094;2023-08-08T07:47:58;101265.50;;;15.19;42.56
37291;BME280;23175;-33.706;151.094;2023-08-08T07:50:32;101267.59;;;14.57;43.04
37291;BME280;23175;-33.706;151.094;2023-08-08T07:53:03;101265.67;;;12.75;46.11
37291;BME280;23175;-33.706;151.094;2023-08-08T07:55:33;101266.56;;;15.30;43.26
37291;BME280;23175;-33.706;151.094;2023-08-08T07:58:03;101264.44;;;15.24;42.80
37291;BME280;23175;-33.706;151.094;2023-08-08T08:00:32;101266.63;;;15.42;43.06
37291;BME280;23175;-33.706;151.094;2023-08-08T08:03:02;101268.44;;;15.54;42.99
37291;BME280;23175;-33.706;151.094;2023-08-08T08:05:32;101272.07;;;15.14;43.21
37291;BME280;23175;-33.706;151.094;2023-08-08T08:08:02;101272.72;;;15.72;43.32
37291;BME280;23175;-33.706;151.094;2023-08-08T08:10:33;101274.16;;;14.37;44.54
37291;BME280;23175;-33.706;151.094;2023-08-08T08:13:03;101271.96;;;15.80;43.30
37291;BME280;23175;-33.706;151.094;2023-08-08T08:15:33;101271.49;;;16.19;42.63
37291;BME280;23175;-33.706;151.094;2023-08-08T08:18:03;101272.20;;;15.87;42.52
37291;BME280;23175;-33.706;151.094;2023-08-08T08:20:33;101277.33;;;15.68;42.72
37291;BME280;23175;-33.706;151.094;2023-08-08T08:23:04;101277.64;;;15.75;43.18
37291;BME280;23175;-33.706;151.094;2023-08-08T08:25:34;101275.73;;;15.70;42.54
37291;BME280;23175;-33.706;151.094;2023-08-08T08:28:04;101275.68;;;16.27;42.12
37291;BME280;23175;-33.706;151.094;2023-08-08T08:30:34;101281.48;;;15.53;42.65
37291;BME280;23175;-33.706;151.094;2023-08-08T08:33:05;101283.08;;;15.58;42.60
37291;BME280;23175;-33.706;151.094;2023-08-08T08:35:35;101285.35;;;16.06;42.60
37291;BME280;23175;-33.706;151.094;2023-08-08T08:38:06;101285.25;;;15.29;42.95
37291;BME280;23175;-33.706;151.094;2023-08-08T08:40:38;101288.19;;;15.56;42.61
37291;BME280;23175;-33.706;151.094;2023-08-08T08:43:10;101292.18;;;15.07;43.81
37291;BME280;23175;-33.706;151.094;2023-08-08T08:45:42;101290.74;;;15.18;43.22
37291;BME280;23175;-33.706;151.094;2023-08-08T08:48:14;101297.56;;;15.35;43.36
37291;BME280;23175;-33.706;151.094;2023-08-08T08:50:45;101300.72;;;15.38;41.99
37291;BME280;23175;-33.706;151.094;2023-08-08T08:53:17;101303.32;;;15.56;41.80
37291;BME280;23175;-33.706;151.094;2023-08-08T08:55:48;101304.70;;;15.39;42.37
37291;BME280;23175;-33.706;151.094;2023-08-08T08:58:19;101306.40;;;14.68;42.90
37291;BME280;23175;-33.706;151.094;2023-08-08T09:00:52;101309.27;;;15.43;42.20
37291;BME280;23175;-33.706;151.094;2023-08-08T09:03:23;101310.79;;;15.17;42.60
37291;BME280;23175;-33.706;151.094;2023-08-08T09:05:53;101316.69;;;15.08;42.65
37291;BME280;23175;-33.706;151.094;2023-08-08T09:08:24;101315.96;;;14.60;42.91
37291;BME280;23175;-33.706;151.094;2023-08-08T09:10:54;101317.30;;;14.41;43.33
37291;BME280;23175;-33.706;151.094;2023-08-08T09:13:23;101323.10;;;14.40;43.16
37291;BME280;23175;-33.706;151.094;2023-08-08T09:15:54;101322.86;;;15.15;42.87
37291;BME280;23175;-33.706;151.094;2023-08-08T09:18:25;101323.06;;;14.36;43.13
37291;BME280;23175;-33.706;151.094;2023-08-08T09:20:55;101324.67;;;14.96;42.78
37291;BME280;23175;-33.706;151.094;2023-08-08T09:23:25;101323.17;;;14.28;43.18
37291;BME280;23175;-33.706;151.094;2023-08-08T09:25:55;101324.64;;;14.66;43.43
37291;BME280;23175;-33.706;151.094;2023-08-08T09:28:26;101327.17;;;14.75;42.92
37291;BME280;23175;-33.706;151.094;2023-08-08T09:30:56;101329.43;;;15.21;42.73
37291;BME280;23175;-33.706;151.094;2023-08-08T09:33:30;101334.58;;;14.82;43.20
37291;BME280;23175;-33.706;151.094;2023-08-08T09:36:00;101335.79;;;14.68;43.28
37291;BME280;23175;-33.706;151.094;2023-08-08T09:38:30;101338.23;;;14.01;43.88
37291;BME280;23175;-33.706;151.094;2023-08-08T09:41:01;101340.75;;;14.59;43.61
37291;BME280;23175;-33.706;151.094;2023-08-08T09:43:36;101340.06;;;14.46;43.59
37291;BME280;23175;-33.706;151.094;2023-08-08T09:46:11;101343.20;;;14.84;42.92
37291;BME280;23175;-33.706;151.094;2023-08-08T09:48:42;101340.13;;;14.71;43.21
37291;BME280;23175;-33.706;151.094;2023-08-08T09:51:12;101341.38;;;14.27;43.70
37291;BME280;23175;-33.706;151.094;2023-08-08T09:53:43;101346.57;;;14.02;44.23
37291;BME280;23175;-33.706;151.094;2023-08-08T09:56:14;101349.71;;;14.35;43.58
37291;BME280;23175;-33.706;151.094;2023-08-08T09:58:45;101352.82;;;13.94;44.45
37291;BME280;23175;-33.706;151.094;2023-08-08T10:01:16;101353.50;;;13.81;44.29
37291;BME280;23175;-33.706;151.094;2023-08-08T10:03:46;101353.19;;;14.27;43.70
37291;BME280;23175;-33.706;151.094;2023-08-08T10:06:18;101356.14;;;13.99;43.93
37291;BME280;23175;-33.706;151.094;2023-08-08T10:08:48;101357.49;;;13.87;43.98
37291;BME280;23175;-33.706;151.094;2023-08-08T10:11:19;101354.23;;;13.98;43.89
37291;BME280;23175;-33.706;151.094;2023-08-08T10:13:52;101351.20;;;13.91;43.69
37291;BME280;23175;-33.706;151.094;2023-08-08T10:16:25;101351.84;;;13.65;43.73
37291;BME280;23175;-33.706;151.094;2023-08-08T10:19:00;101351.79;;;14.04;43.54
37291;BME280;23175;-33.706;151.094;2023-08-08T10:21:35;101350.85;;;13.59;44.34
37291;BME280;23175;-33.706;151.094;2023-08-08T10:24:07;101353.02;;;13.62;44.17
37291;BME280;23175;-33.706;151.094;2023-08-08T10:26:52;101356.99;;;13.78;43.85
37291;BME280;23175;-33.706;151.094;2023-08-08T10:29:24;101361.52;;;12.80;45.03
37291;BME280;23175;-33.706;151.094;2023-08-08T10:32:00;101366.22;;;13.90;44.33
37291;BME280;23175;-33.706;151.094;2023-08-08T10:34:40;101365.50;;;13.21;44.11
37291;BME280;23175;-33.706;151.094;2023-08-08T10:37:12;101371.51;;;13.42;44.56
37291;BME280;23175;-33.706;151.094;2023-08-08T10:39:52;101380.40;;;13.60;44.32
37291;BME280;23175;-33.706;151.094;2023-08-08T10:42:25;101381.72;;;12.98;44.50
37291;BME280;23175;-33.706;151.094;2023-08-08T10:44:56;101381.89;;;13.24;44.32
37291;BME280;23175;-33.706;151.094;2023-08-08T10:47:30;101386.23;;;13.23;44.97
37291;BME280;23175;-33.706;151.094;2023-08-08T10:50:04;101393.46;;;12.61;44.97
37291;BME280;23175;-33.706;151.094;2023-08-08T10:52:38;101395.21;;;13.01;45.52
37291;BME280;23175;-33.706;151.094;2023-08-08T10:55:19;101394.18;;;12.58;44.94
37291;BME280;23175;-33.706;151.094;2023-08-08T10:57:57;101393.77;;;13.16;45.00
37291;BME280;23175;-33.706;151.094;2023-08-08T11:00:30;101396.89;;;12.44;44.93
37291;BME280;23175;-33.706;151.094;2023-08-08T11:03:01;101398.05;;;12.73;45.02
37291;BME280;23175;-33.706;151.094;2023-08-08T11:05:32;101401.35;;;12.49;45.18
37291;BME280;23175;-33.706;151.094;2023-08-08T11:08:04;101403.27;;;13.12;45.02
37291;BME280;23175;-33.706;151.094;2023-08-08T11:10:38;101402.65;;;12.78;45.42
37291;BME280;23175;-33.706;151.094;2023-08-08T11:13:09;101402.81;;;12.93;45.03
37291;BME280;23175;-33.706;151.094;2023-08-08T11:15:39;101403.16;;;13.24;44.50
37291;BME280;23175;-33.706;151.094;2023-08-08T11:18:09;101404.08;;;12.97;44.99
37291;BME280;23175;-33.706;151.094;2023-08-08T11:20:39;101403.56;;;13.05;44.62
37291;BME280;23175;-33.706;151.094;2023-08-08T11:23:13;101405.63;;;13.45;44.20
37291;BME280;23175;-33.706;151.094;2023-08-08T11:25:44;101403.84;;;13.30;44.92
37291;BME280;23175;-33.706;151.094;2023-08-08T11:28:15;101400.77;;;13.71;44.28
37291;BME280;23175;-33.706;151.094;2023-08-08T11:30:46;101398.40;;;13.55;44.27
37291;BME280;23175;-33.706;151.094;2023-08-08T11:33:17;101395.46;;;13.61;44.53
37291;BME280;23175;-33.706;151.094;2023-08-08T11:35:47;101396.06;;;12.94;44.98
37291;BME280;23175;-33.706;151.094;2023-08-08T11:38:18;101395.00;;;13.21;45.09
37291;BME280;23175;-33.706;151.094;2023-08-08T11:40:49;101397.50;;;12.87;45.22
37291;BME280;23175;-33.706;151.094;2023-08-08T11:43:19;101396.75;;;12.99;45.02
37291;BME280;23175;-33.706;151.094;2023-08-08T11:45:50;101397.80;;;13.09;45.31
37291;BME280;23175;-33.706;151.094;2023-08-08T11:48:23;101397.00;;;12.68;45.93
37291;BME280;23175;-33.706;151.094;2023-08-08T11:50:54;101398.39;;;13.48;45.77
37291;BME280;23175;-33.706;151.094;2023-08-08T11:53:25;101398.21;;;13.59;45.76
37291;BME280;23175;-33.706;151.094;2023-08-08T11:55:56;101394.64;;;13.47;45.60
37291;BME280;23175;-33.706;151.094;2023-08-08T11:58:26;101393.84;;;13.82;45.57
37291;BME280;23175;-33.706;151.094;2023-08-08T12:00:57;101392.05;;;13.59;45.54
37291;BME280;23175;-33.706;151.094;2023-08-08T12:03:27;101388.92;;;13.64;45.61
37291;BME280;23175;-33.706;151.094;2023-08-08T12:05:58;101385.91;;;13.82;45.72
37291;BME280;23175;-33.706;151.094;2023-08-08T12:08:31;101383.26;;;13.91;45.59
37291;BME280;23175;-33.706;151.094;2023-08-08T12:11:02;101380.69;;;13.56;45.66
37291;BME280;23175;-33.706;151.094;2023-08-08T12:13:33;101379.26;;;13.63;45.97
37291;BME280;23175;-33.706;151.094;2023-08-08T12:16:09;101378.19;;;13.50;45.63
37291;BME280;23175;-33.706;151.094;2023-08-08T12:18:44;101381.54;;;13.15;45.61
37291;BME280;23175;-33.706;151.094;2023-08-08T12:21:14;101381.72;;;13.18;45.49
37291;BME280;23175;-33.706;151.094;2023-08-08T12:23:44;101380.39;;;13.57;45.37
37291;BME280;23175;-33.706;151.094;2023-08-08T12:26:14;101377.26;;;13.00;45.57
37291;BME280;23175;-33.706;151.094;2023-08-08T12:28:45;101377.83;;;13.65;45.34
37291;BME280;23175;-33.706;151.094;2023-08-08T12:31:16;101384.21;;;11.93;48.24
37291;BME280;23175;-33.706;151.094;2023-08-08T12:33:46;101384.19;;;12.17;47.99
37291;BME280;23175;-33.706;151.094;2023-08-08T12:36:16;101381.57;;;13.30;46.64
37291;BME280;23175;-33.706;151.094;2023-08-08T12:38:46;101378.07;;;13.17;46.10